sensor_id;sensor_type;location;lat;lon;timestamp;temperature;humidity
21823;DHT22;11074;48.596;9.238;2023-09-19T00:00:21;18.50;99.90
21823;DHT22;11074;48.596;9.238;2023-09-19T00:02:57;18.60;99.90
21823;DHT22;11074;48.596;9.238;2023-09-19T00:05:25;18.60;99.90
21823;DHT22;11074;48.596;9.238;2023-09-19T00:07:54;18.60;99.90
21823;DHT22;11074;48.596;9.238;2023-09-19T00:10:27;18.60;99.90
21823;DHT22;11074;48.596;9.238;2023-09-19T00:12:57;18.40;99.90
21823;DHT22;11074;48.596;9.238;2023-09-19T00:15:26;18.50;99.90
21823;DHT22;11074;48.596;9.238;2023-09-19T00:17:54;18.60;99.90
21823;DHT22;11074;48.596;9.238;2023-09-19T00:20:21;18.60;99.90
21823;DHT22;11074;48.596;9.238;2023-09-19T00:22:49;18.60;99.90
21823;DHT22;11074;48.596;9.238;2023-09-19T00:25:22;18.30;99.90
21823;DHT22;11074;48.596;9.238;2023-09-19T00:27:47;18.20;99.90
21823;DHT22;11074;48.596;9.238;2023-09-19T00:30:15;18.10;99.90
21823;DHT22;11074;48.596;9.238;2023-09-19T00:32:45;18.10;99.90
21823;DHT22;11074;48.596;9.238;2023-09-19T00:35:13;17.90;99.90
21823;DHT22;11074;48.596;9.238;2023-09-19T00:37:41;18.10;99.90
21823;DHT22;11074;48.596;9.238;2023-09-19T00:40:08;18.30;99.90
21823;DHT22;11074;48.596;9.238;2023-09-19T00:42:41;18.40;99.90
21823;DHT22;11074;48.596;9.238;2023-09-19T00:45:09;18.40;99.90
21823;DHT22;11074;48.596;9.238;2023-09-19T00:47:44;18.40;99.90
21823;DHT22;11074;48.596;9.238;2023-09-19T00:50:18;18.10;99.90
21823;DHT22;11074;48.596;9.238;2023-09-19T00:52:46;18.20;99.90
21823;DHT22;11074;48.596;9.238;2023-09-19T00:55:15;18.40;99.90
21823;DHT22;11074;48.596;9.238;2023-09-19T00:57:45;18.40;99.90
21823;DHT22;11074;48.596;9.238;2023-09-19T01:00:12;18.40;99.90
21823;DHT22;11074;48.596;9.238;2023-09-19T01:02:42;18.40;99.90
21823;DHT22;11074;48.596;9.238;2023-09-19T01:05:09;18.40;99.90
21823;DHT22;11074;48.596;9.238;2023-09-19T01:07:36;18.40;99.90
21823;DHT22;11074;48.596;9.238;2023-09-19T01:10:07;18.50;99.90
21823;DHT22;11074;48.596;9.238;2023-09-19T01:16:07;18.60;99.90
21823;DHT22;11074;48.596;9.238;2023-09-19T01:19:01;18.60;99.90
21823;DHT22;11074;48.596;9.238;2023-09-19T01:22:16;18.50;99.90
21823;DHT22;11074;48.596;9.238;2023-09-19T01:31:02;18.40;99.90
21823;DHT22;11074;48.596;9.238;2023-09-19T01:34:01;18.50;99.90
21823;DHT22;11074;48.596;9.238;2023-09-19T01:36:35;18.60;99.90
21823;DHT22;11074;48.596;9.238;2023-09-19T01:39:06;18.50;99.90
21823;DHT22;11074;48.596;9.238;2023-09-19T01:41:54;18.40;99.90
21823;DHT22;11074;48.596;9.238;2023-09-19T01:45:07;18.10;99.90
21823;DHT22;11074;48.596;9.238;2023-09-19T01:51:11;18.10;99.90
21823;DHT22;11074;48.596;9.238;2023-09-19T01:53:55;18.20;99.90
21823;DHT22;11074;48.596;9.238;2023-09-19T01:59:38;18.20;99.90
21823;DHT22;11074;48.596;9.238;2023-09-19T02:02:09;18.30;99.90
21823;DHT22;11074;48.596;9.238;2023-09-19T02:04:37;18.40;99.90
21823;DHT22;11074;48.596;9.238;2023-09-19T02:07:03;18.50;99.90
21823;DHT22;11074;48.596;9.238;2023-09-19T02:09:31;18.30;99.90
21823;DHT22;11074;48.596;9.238;2023-09-19T02:12:01;18.20;99.90
21823;DHT22;11074;48.596;9.238;2023-09-19T02:14:29;18.20;99.90
21823;DHT22;11074;48.596;9.238;2023-09-19T02:16:55;18.20;99.90
21823;DHT22;11074;48.596;9.238;2023-09-19T02:19:21;18.10;99.90
21823;DHT22;11074;48.596;9.238;2023-09-19T02:21:47;18.20;99.90
21823;DHT22;11074;48.596;9.238;2023-09-19T02:24:14;18.30;99.90
21823;DHT22;11074;48.596;9.238;2023-09-19T02:26:40;18.40;99.90
21823;DHT22;11074;48.596;9.238;2023-09-19T02:29:06;18.40;99.90
21823;DHT22;11074;48.596;9.238;2023-09-19T02:31:32;18.30;99.90
21823;DHT22;11074;48.596;9.238;2023-09-19T02:33:58;18.20;99.90
21823;DHT22;11074;48.596;9.238;2023-09-19T02:36:25;18.20;99.90
21823;DHT22;11074;48.596;9.238;2023-09-19T02:38:51;18.20;99.90
21823;DHT22;11074;48.596;9.238;2023-09-19T02:41:17;18.10;99.90
21823;DHT22;11074;48.596;9.238;2023-09-19T02:43:42;18.00;99.90
21823;DHT22;11074;48.596;9.238;2023-09-19T02:46:08;18.00;99.90
21823;DHT22;11074;48.596;9.238;2023-09-19T02:48:34;18.10;99.90
21823;DHT22;11074;48.596;9.238;2023-09-19T02:51:01;18.10;99.90
21823;DHT22;11074;48.596;9.238;2023-09-19T02:53:28;17.90;99.90
21823;DHT22;11074;48.596;9.238;2023-09-19T02:55:56;17.90;99.90
21823;DHT22;11074;48.596;9.238;2023-09-19T02:58:21;18.00;99.90
21823;DHT22;11074;48.596;9.238;2023-09-19T03:00:49;18.10;99.90
21823;DHT22;11074;48.596;9.238;2023-09-19T03:03:16;18.20;99.90
21823;DHT22;11074;48.596;9.238;2023-09-19T03:05:43;18.20;99.90
21823;DHT22;11074;48.596;9.238;2023-09-19T03:08:12;18.10;99.90
21823;DHT22;11074;48.596;9.238;2023-09-19T03:10:40;18.10;99.90
21823;DHT22;11074;48.596;9.238;2023-09-19T03:13:06;17.90;99.90
21823;DHT22;11074;48.596;9.238;2023-09-19T03:15:35;17.90;99.90
21823;DHT22;11074;48.596;9.238;2023-09-19T03:18:04;17.70;99.90
21823;DHT22;11074;48.596;9.238;2023-09-19T03:20:31;17.80;99.90
21823;DHT22;11074;48.596;9.238;2023-09-19T03:22:56;17.90;99.90
21823;DHT22;11074;48.596;9.238;2023-09-19T03:25:22;18.00;99.90
21823;DHT22;11074;48.596;9.238;2023-09-19T03:27:49;18.00;99.90
21823;DHT22;11074;48.596;9.238;2023-09-19T03:30:15;17.90;99.90
21823;DHT22;11074;48.596;9.238;2023-09-19T03:32:48;17.90;99.90
21823;DHT22;11074;48.596;9.238;2023-09-19T03:35:15;18.00;99.90
21823;DHT22;11074;48.596;9.238;2023-09-19T03:37:42;17.90;99.90
21823;DHT22;11074;48.596;9.238;2023-09-19T03:40:11;18.00;99.90
21823;DHT22;11074;48.596;9.238;2023-09-19T03:42:39;18.10;99.90
21823;DHT22;11074;48.596;9.238;2023-09-19T03:45:08;17.80;99.90
21823;DHT22;11074;48.596;9.238;2023-09-19T03:47:38;17.90;99.90
21823;DHT22;11074;48.596;9.238;2023-09-19T03:50:05;18.00;99.90
21823;DHT22;11074;48.596;9.238;2023-09-19T03:52:33;18.00;99.90
21823;DHT22;11074;48.596;9.238;2023-09-19T03:54:59;18.00;99.90
21823;DHT22;11074;48.596;9.238;2023-09-19T03:57:26;18.00;99.90
21823;DHT22;11074;48.596;9.238;2023-09-19T03:59:52;18.00;99.90
21823;DHT22;11074;48.596;9.238;2023-09-19T04:02:19;18.10;99.90
21823;DHT22;11074;48.596;9.238;2023-09-19T04:04:49;18.00;99.90
21823;DHT22;11074;48.596;9.238;2023-09-19T04:07:15;18.10;99.90
21823;DHT22;11074;48.596;9.238;2023-09-19T04:09:42;18.20;99.90
21823;DHT22;11074;48.596;9.238;2023-09-19T04:12:07;18.20;99.90
21823;DHT22;11074;48.596;9.238;2023-09-19T04:14:37;18.10;99.90
21823;DHT22;11074;48.596;9.238;2023-09-19T04:17:04;17.90;99.90
21823;DHT22;11074;48.596;9.238;2023-09-19T04:19:31;17.80;99.90
21823;DHT22;11074;48.596;9.238;2023-09-19T04:21:57;17.60;99.90
21823;DHT22;11074;48.596;9.238;2023-09-19T04:24:22;17.60;99.90
21823;DHT22;11074;48.596;9.238;2023-09-19T04:26:48;17.40;99.90
21823;DHT22;11074;48.596;9.238;2023-09-19T04:29:14;17.40;99.90
21823;DHT22;11074;48.596;9.238;2023-09-19T04:31:40;17.50;99.90
21823;DHT22;11074;48.596;9.238;2023-09-19T04:34:06;17.50;99.90
21823;DHT22;11074;48.596;9.238;2023-09-19T04:36:34;17.60;99.90
21823;DHT22;11074;48.596;9.238;2023-09-19T04:39:02;17.80;99.90
21823;DHT22;11074;48.596;9.238;2023-09-19T04:41:31;17.80;99.90
21823;DHT22;11074;48.596;9.238;2023-09-19T04:43:56;17.90;99.90
21823;DHT22;11074;48.596;9.238;2023-09-19T04:46:22;17.90;99.90
21823;DHT22;11074;48.596;9.238;2023-09-19T04:48:48;17.90;99.90
21823;DHT22;11074;48.596;9.238;2023-09-19T04:51:13;17.80;99.90
21823;DHT22;11074;48.596;9.238;2023-09-19T04:53:40;17.70;99.90
21823;DHT22;11074;48.596;9.238;2023-09-19T04:56:06;17.60;99.90
21823;DHT22;11074;48.596;9.238;2023-09-19T04:58:33;17.50;99.90
21823;DHT22;11074;48.596;9.238;2023-09-19T05:00:59;17.30;99.90
21823;DHT22;11074;48.596;9.238;2023-09-19T05:03:25;17.10;99.90
21823;DHT22;11074;48.596;9.238;2023-09-19T05:05:50;16.70;99.90
21823;DHT22;11074;48.596;9.238;2023-09-19T05:08:16;16.50;99.90
21823;DHT22;11074;48.596;9.238;2023-09-19T05:10:42;16.40;99.90
21823;DHT22;11074;48.596;9.238;2023-09-19T05:13:07;16.30;99.90
21823;DHT22;11074;48.596;9.238;2023-09-19T05:15:33;16.30;99.90
21823;DHT22;11074;48.596;9.238;2023-09-19T05:18:01;16.30;99.90
21823;DHT22;11074;48.596;9.238;2023-09-19T05:20:26;16.30;99.90
21823;DHT22;11074;48.596;9.238;2023-09-19T05:23:12;16.40;99.90
21823;DHT22;11074;48.596;9.238;2023-09-19T05:25:39;16.30;99.90
21823;DHT22;11074;48.596;9.238;2023-09-19T05:28:06;16.30;99.90
21823;DHT22;11074;48.596;9.238;2023-09-19T05:30:33;16.40;99.90
21823;DHT22;11074;48.596;9.238;2023-09-19T05:33:01;16.40;99.90
21823;DHT22;11074;48.596;9.238;2023-09-19T05:35:29;16.40;99.90
21823;DHT22;11074;48.596;9.238;2023-09-19T05:37:57;16.40;99.90
21823;DHT22;11074;48.596;9.238;2023-09-19T05:40:24;16.50;99.90
21823;DHT22;11074;48.596;9.238;2023-09-19T05:42:54;16.70;99.90
21823;DHT22;11074;48.596;9.238;2023-09-19T05:45:29;16.80;99.90
21823;DHT22;11074;48.596;9.238;2023-09-19T05:48:08;16.80;99.90
21823;DHT22;11074;48.596;9.238;2023-09-19T05:50:35;16.90;99.90
21823;DHT22;11074;48.596;9.238;2023-09-19T05:53:01;16.90;99.90
21823;DHT22;11074;48.596;9.238;2023-09-19T05:55:27;16.90;99.90
21823;DHT22;11074;48.596;9.238;2023-09-19T05:57:54;16.80;99.90
21823;DHT22;11074;48.596;9.238;2023-09-19T06:00:22;16.80;99.90
21823;DHT22;11074;48.596;9.238;2023-09-19T06:02:53;16.80;99.90
21823;DHT22;11074;48.596;9.238;2023-09-19T06:05:20;16.80;99.90
21823;DHT22;11074;48.596;9.238;2023-09-19T06:07:46;16.80;99.90
21823;DHT22;11074;48.596;9.238;2023-09-19T06:10:12;16.90;99.90
21823;DHT22;11074;48.596;9.238;2023-09-19T06:12:40;17.10;99.90
21823;DHT22;11074;48.596;9.238;2023-09-19T06:15:09;17.00;99.90
21823;DHT22;11074;48.596;9.238;2023-09-19T06:17:41;17.00;99.90
21823;DHT22;11074;48.596;9.238;2023-09-19T06:20:13;16.90;99.90
21823;DHT22;11074;48.596;9.238;2023-09-19T06:22:44;17.00;99.90
21823;DHT22;11074;48.596;9.238;2023-09-19T06:25:12;17.00;99.90
21823;DHT22;11074;48.596;9.238;2023-09-19T06:27:45;17.00;99.90
21823;DHT22;11074;48.596;9.238;2023-09-19T06:30:11;17.20;99.90
21823;DHT22;11074;48.596;9.238;2023-09-19T06:32:37;17.30;99.90
21823;DHT22;11074;48.596;9.238;2023-09-19T06:35:03;17.30;99.90
21823;DHT22;11074;48.596;9.238;2023-09-19T06:37:32;17.40;99.90
21823;DHT22;11074;48.596;9.238;2023-09-19T06:39:59;17.50;99.90
21823;DHT22;11074;48.596;9.238;2023-09-19T06:42:25;17.40;99.90
21823;DHT22;11074;48.596;9.238;2023-09-19T06:44:53;17.30;99.90
21823;DHT22;11074;48.596;9.238;2023-09-19T06:47:19;17.30;99.90
21823;DHT22;11074;48.596;9.238;2023-09-19T06:49:45;17.20;99.90
21823;DHT22;11074;48.596;9.238;2023-09-19T06:52:11;17.30;99.90
21823;DHT22;11074;48.596;9.238;2023-09-19T06:54:37;17.20;99.90
21823;DHT22;11074;48.596;9.238;2023-09-19T06:57:05;17.10;99.90
21823;DHT22;11074;48.596;9.238;2023-09-19T06:59:34;17.00;99.90
21823;DHT22;11074;48.596;9.238;2023-09-19T07:02:01;16.90;99.90
21823;DHT22;11074;48.596;9.238;2023-09-19T07:04:27;16.80;99.90
21823;DHT22;11074;48.596;9.238;2023-09-19T07:06:54;16.80;99.90
21823;DHT22;11074;48.596;9.238;2023-09-19T07:09:23;16.80;99.90
21823;DHT22;11074;48.596;9.238;2023-09-19T07:11:52;16.70;99.90
21823;DHT22;11074;48.596;9.238;2023-09-19T07:14:18;16.70;99.90
21823;DHT22;11074;48.596;9.238;2023-09-19T07:16:44;16.70;99.90
21823;DHT22;11074;48.596;9.238;2023-09-19T07:19:10;16.70;99.90
21823;DHT22;11074;48.596;9.238;2023-09-19T07:21:36;16.80;99.90
21823;DHT22;11074;48.596;9.238;2023-09-19T07:24:04;16.90;99.90
21823;DHT22;11074;48.596;9.238;2023-09-19T07:26:30;16.90;99.90
21823;DHT22;11074;48.596;9.238;2023-09-19T07:28:56;16.90;99.90
21823;DHT22;11074;48.596;9.238;2023-09-19T07:31:23;16.90;99.90
21823;DHT22;11074;48.596;9.238;2023-09-19T07:33:49;16.90;99.90
21823;DHT22;11074;48.596;9.238;2023-09-19T07:36:14;17.00;99.90
21823;DHT22;11074;48.596;9.238;2023-09-19T07:38:41;17.10;99.90
21823;DHT22;11074;48.596;9.238;2023-09-19T07:41:08;17.20;99.90
21823;DHT22;11074;48.596;9.238;2023-09-19T07:43:36;17.20;99.90
21823;DHT22;11074;48.596;9.238;2023-09-19T07:46:08;17.30;99.90
21823;DHT22;11074;48.596;9.238;2023-09-19T07:48:37;17.40;99.90
21823;DHT22;11074;48.596;9.238;2023-09-19T07:51:08;17.40;99.90
21823;DHT22;11074;48.596;9.238;2023-09-19T07:53:37;17.50;99.90
21823;DHT22;11074;48.596;9.238;2023-09-19T07:56:07;17.70;99.90
21823;DHT22;11074;48.596;9.238;2023-09-19T07:58:34;17.80;99.90
21823;DHT22;11074;48.596;9.238;2023-09-19T08:01:08;18.00;99.90
21823;DHT22;11074;48.596;9.238;2023-09-19T08:03:36;18.20;99.90
21823;DHT22;11074;48.596;9.238;2023-09-19T08:06:09;18.30;99.90
21823;DHT22;11074;48.596;9.238;2023-09-19T08:08:36;18.40;99.90
21823;DHT22;11074;48.596;9.238;2023-09-19T08:11:05;18.40;99.90
21823;DHT22;11074;48.596;9.238;2023-09-19T08:13:37;18.50;99.90
21823;DHT22;11074;48.596;9.238;2023-09-19T08:16:12;18.60;99.90
21823;DHT22;11074;48.596;9.238;2023-09-19T08:18:40;18.50;99.90
21823;DHT22;11074;48.596;9.238;2023-09-19T08:21:07;18.50;99.90
21823;DHT22;11074;48.596;9.238;2023-09-19T08:23:36;18.50;99.90
21823;DHT22;11074;48.596;9.238;2023-09-19T08:26:03;18.60;99.90
21823;DHT22;11074;48.596;9.238;2023-09-19T08:28:32;18.50;99.90
21823;DHT22;11074;48.596;9.238;2023-09-19T08:31:04;18.50;99.90
21823;DHT22;11074;48.596;9.238;2023-09-19T08:33:34;18.50;99.90
21823;DHT22;11074;48.596;9.238;2023-09-19T08:36:05;18.60;99.90
21823;DHT22;11074;48.596;9.238;2023-09-19T08:38:34;18.80;99.90
21823;DHT22;11074;48.596;9.238;2023-09-19T08:41:04;18.80;99.90
21823;DHT22;11074;48.596;9.238;2023-09-19T08:43:31;18.90;99.90
21823;DHT22;11074;48.596;9.238;2023-09-19T08:48:34;18.90;99.90
21823;DHT22;11074;48.596;9.238;2023-09-19T08:51:08;19.00;99.90
21823;DHT22;11074;48.596;9.238;2023-09-19T08:54:03;19.00;99.90
21823;DHT22;11074;48.596;9.238;2023-09-19T08:56:32;18.90;99.90
21823;DHT22;11074;48.596;9.238;2023-09-19T08:59:06;18.70;99.90
21823;DHT22;11074;48.596;9.238;2023-09-19T09:01:36;18.70;99.90
21823;DHT22;11074;48.596;9.238;2023-09-19T09:04:08;18.80;99.90
21823;DHT22;11074;48.596;9.238;2023-09-19T09:06:38;18.70;99.90
21823;DHT22;11074;48.596;9.238;2023-09-19T09:09:08;18.80;99.90
21823;DHT22;11074;48.596;9.238;2023-09-19T09:11:34;19.00;99.90
21823;DHT22;11074;48.596;9.238;2023-09-19T09:14:06;19.00;99.90
21823;DHT22;11074;48.596;9.238;2023-09-19T09:16:35;19.00;99.90
21823;DHT22;11074;48.596;9.238;2023-09-19T09:19:01;19.10;99.90
21823;DHT22;11074;48.596;9.238;2023-09-19T09:21:27;19.10;99.90
21823;DHT22;11074;48.596;9.238;2023-09-19T09:23:54;19.20;99.90
21823;DHT22;11074;48.596;9.238;2023-09-19T09:26:49;19.30;99.90
21823;DHT22;11074;48.596;9.238;2023-09-19T09:29:15;19.30;99.90
21823;DHT22;11074;48.596;9.238;2023-09-19T09:31:41;19.40;99.90
21823;DHT22;11074;48.596;9.238;2023-09-19T09:34:08;19.50;99.90
21823;DHT22;11074;48.596;9.238;2023-09-19T09:36:35;19.60;99.90
21823;DHT22;11074;48.596;9.238;2023-09-19T09:39:07;19.30;99.90
21823;DHT22;11074;48.596;9.238;2023-09-19T09:41:50;19.20;99.90
21823;DHT22;11074;48.596;9.238;2023-09-19T09:44:17;19.20;99.90
21823;DHT22;11074;48.596;9.238;2023-09-19T09:46:45;19.10;99.90
21823;DHT22;11074;48.596;9.238;2023-09-19T09:49:24;19.10;99.90
21823;DHT22;11074;48.596;9.238;2023-09-19T09:52:00;19.10;99.90
21823;DHT22;11074;48.596;9.238;2023-09-19T09:54:31;19.10;99.90
21823;DHT22;11074;48.596;9.238;2023-09-19T09:57:09;19.10;99.90
21823;DHT22;11074;48.596;9.238;2023-09-19T09:59:52;19.20;99.90
21823;DHT22;11074;48.596;9.238;2023-09-19T10:05:19;19.20;99.90
21823;DHT22;11074;48.596;9.238;2023-09-19T10:07:49;19.20;99.90
21823;DHT22;11074;48.596;9.238;2023-09-19T10:10:33;19.30;99.90
21823;DHT22;11074;48.596;9.238;2023-09-19T10:13:10;19.30;99.90
21823;DHT22;11074;48.596;9.238;2023-09-19T10:15:44;19.30;99.90
21823;DHT22;11074;48.596;9.238;2023-09-19T10:18:21;19.30;99.90
21823;DHT22;11074;48.596;9.238;2023-09-19T10:20:49;19.30;99.90
21823;DHT22;11074;48.596;9.238;2023-09-19T10:23:18;19.40;99.90
21823;DHT22;11074;48.596;9.238;2023-09-19T10:25:49;19.50;99.90
21823;DHT22;11074;48.596;9.238;2023-09-19T10:28:18;19.60;99.90
21823;DHT22;11074;48.596;9.238;2023-09-19T10:30:49;19.50;99.90
21823;DHT22;11074;48.596;9.238;2023-09-19T10:33:19;19.50;99.90
21823;DHT22;11074;48.596;9.238;2023-09-19T10:35:48;19.50;99.90
21823;DHT22;11074;48.596;9.238;2023-09-19T10:38:23;19.60;99.90
21823;DHT22;11074;48.596;9.238;2023-09-19T10:40:51;19.50;99.90
21823;DHT22;11074;48.596;9.238;2023-09-19T10:43:20;19.50;99.90
21823;DHT22;11074;48.596;9.238;2023-09-19T10:45:48;19.60;99.90
21823;DHT22;11074;48.596;9.238;2023-09-19T10:48:17;19.50;99.90
21823;DHT22;11074;48.596;9.238;2023-09-19T10:50:51;19.40;99.90
21823;DHT22;11074;48.596;9.238;2023-09-19T10:53:25;19.30;99.90
21823;DHT22;11074;48.596;9.238;2023-09-19T10:55:57;19.40;99.90
21823;DHT22;11074;48.596;9.238;2023-09-19T10:58:29;19.50;99.90
21823;DHT22;11074;48.596;9.238;2023-09-19T11:01:00;19.60;99.90
21823;DHT22;11074;48.596;9.238;2023-09-19T11:03:31;19.80;99.90
21823;DHT22;11074;48.596;9.238;2023-09-19T11:06:17;19.90;99.90
21823;DHT22;11074;48.596;9.238;2023-09-19T11:11:44;19.90;99.90
21823;DHT22;11074;48.596;9.238;2023-09-19T11:20:17;20.00;99.90
21823;DHT22;11074;48.596;9.238;2023-09-19T11:30:35;19.90;99.90
21823;DHT22;11074;48.596;9.238;2023-09-19T11:33:22;20.00;99.90
21823;DHT22;11074;48.596;9.238;2023-09-19T11:36:15;20.10;99.90
21823;DHT22;11074;48.596;9.238;2023-09-19T11:43:46;20.50;99.90
21823;DHT22;11074;48.596;9.238;2023-09-19T11:46:16;20.50;99.90
21823;DHT22;11074;48.596;9.238;2023-09-19T11:48:48;20.60;99.90
21823;DHT22;11074;48.596;9.238;2023-09-19T11:53:58;20.90;99.90
21823;DHT22;11074;48.596;9.238;2023-09-19T11:56:27;21.10;99.90
21823;DHT22;11074;48.596;9.238;2023-09-19T11:58:55;21.20;99.90
21823;DHT22;11074;48.596;9.238;2023-09-19T12:01:32;21.30;99.90
21823;DHT22;11074;48.596;9.238;2023-09-19T12:04:01;21.20;99.90
21823;DHT22;11074;48.596;9.238;2023-09-19T12:06:30;21.00;99.90
21823;DHT22;11074;48.596;9.238;2023-09-19T12:08:58;20.90;99.90
21823;DHT22;11074;48.596;9.238;2023-09-19T12:11:30;21.00;99.90
21823;DHT22;11074;48.596;9.238;2023-09-19T12:13:59;21.00;99.90
21823;DHT22;11074;48.596;9.238;2023-09-19T12:16:29;20.90;99.90
21823;DHT22;11074;48.596;9.238;2023-09-19T12:19:17;21.00;99.90
21823;DHT22;11074;48.596;9.238;2023-09-19T12:21:58;21.20;99.90
21823;DHT22;11074;48.596;9.238;2023-09-19T12:24:29;21.40;99.90
21823;DHT22;11074;48.596;9.238;2023-09-19T12:27:00;21.60;99.90
21823;DHT22;11074;48.596;9.238;2023-09-19T12:29:30;21.70;99.90
21823;DHT22;11074;48.596;9.238;2023-09-19T12:31:57;21.80;99.90
21823;DHT22;11074;48.596;9.238;2023-09-19T12:34:29;21.90;99.90
21823;DHT22;11074;48.596;9.238;2023-09-19T12:37:12;22.00;99.90
21823;DHT22;11074;48.596;9.238;2023-09-19T12:39:47;22.10;99.90
21823;DHT22;11074;48.596;9.238;2023-09-19T12:42:26;22.30;99.90
21823;DHT22;11074;48.596;9.238;2023-09-19T12:44:58;22.40;99.90
21823;DHT22;11074;48.596;9.238;2023-09-19T12:47:27;22.40;99.90
21823;DHT22;11074;48.596;9.238;2023-09-19T12:50:14;22.50;99.90
21823;DHT22;11074;48.596;9.238;2023-09-19T12:53:00;22.50;99.90
21823;DHT22;11074;48.596;9.238;2023-09-19T12:55:28;22.40;99.90
21823;DHT22;11074;48.596;9.238;2023-09-19T12:58:13;22.40;99.90
21823;DHT22;11074;48.596;9.238;2023-09-19T13:00:45;22.50;99.90
21823;DHT22;11074;48.596;9.238;2023-09-19T13:05:59;22.30;99.90
21823;DHT22;11074;48.596;9.238;2023-09-19T13:08:32;22.20;99.90
21823;DHT22;11074;48.596;9.238;2023-09-19T13:13:37;22.10;99.90
21823;DHT22;11074;48.596;9.238;2023-09-19T13:16:03;21.80;99.90
21823;DHT22;11074;48.596;9.238;2023-09-19T13:18:42;21.80;99.90
21823;DHT22;11074;48.596;9.238;2023-09-19T13:21:10;21.80;99.90
21823;DHT22;11074;48.596;9.238;2023-09-19T13:23:49;21.70;99.90
21823;DHT22;11074;48.596;9.238;2023-09-19T13:26:15;21.60;99.90
21823;DHT22;11074;48.596;9.238;2023-09-19T13:28:41;21.80;99.90
21823;DHT22;11074;48.596;9.238;2023-09-19T13:31:07;22.10;99.90
21823;DHT22;11074;48.596;9.238;2023-09-19T13:33:43;22.30;99.90
21823;DHT22;11074;48.596;9.238;2023-09-19T13:36:13;22.60;99.90
21823;DHT22;11074;48.596;9.238;2023-09-19T13:38:42;22.70;99.90
21823;DHT22;11074;48.596;9.238;2023-09-19T13:41:12;22.90;99.90
21823;DHT22;11074;48.596;9.238;2023-09-19T13:43:39;23.00;99.90
21823;DHT22;11074;48.596;9.238;2023-09-19T13:46:05;23.10;99.90
21823;DHT22;11074;48.596;9.238;2023-09-19T13:48:37;23.10;99.90
21823;DHT22;11074;48.596;9.238;2023-09-19T13:51:04;23.00;99.90
21823;DHT22;11074;48.596;9.238;2023-09-19T13:53:30;23.00;99.90
21823;DHT22;11074;48.596;9.238;2023-09-19T13:55:55;23.00;99.90
21823;DHT22;11074;48.596;9.238;2023-09-19T13:58:21;23.00;99.90
21823;DHT22;11074;48.596;9.238;2023-09-19T14:00:48;23.00;99.90
21823;DHT22;11074;48.596;9.238;2023-09-19T14:03:14;22.90;99.90
21823;DHT22;11074;48.596;9.238;2023-09-19T14:05:40;22.80;99.90
21823;DHT22;11074;48.596;9.238;2023-09-19T14:08:08;22.90;99.90
21823;DHT22;11074;48.596;9.238;2023-09-19T14:10:33;23.00;99.90
21823;DHT22;11074;48.596;9.238;2023-09-19T14:13:03;22.90;99.90
21823;DHT22;11074;48.596;9.238;2023-09-19T14:15:29;23.00;99.90
21823;DHT22;11074;48.596;9.238;2023-09-19T14:17:57;23.00;99.90
21823;DHT22;11074;48.596;9.238;2023-09-19T14:20:25;23.00;99.90
21823;DHT22;11074;48.596;9.238;2023-09-19T14:22:54;23.00;99.90
21823;DHT22;11074;48.596;9.238;2023-09-19T14:25:20;22.90;99.90
21823;DHT22;11074;48.596;9.238;2023-09-19T14:27:49;22.80;99.90
21823;DHT22;11074;48.596;9.238;2023-09-19T14:30:15;22.90;99.90
21823;DHT22;11074;48.596;9.238;2023-09-19T14:32:41;22.90;99.90
21823;DHT22;11074;48.596;9.238;2023-09-19T14:35:07;23.00;99.90
21823;DHT22;11074;48.596;9.238;2023-09-19T14:37:35;22.90;99.90
21823;DHT22;11074;48.596;9.238;2023-09-19T14:40:00;22.90;99.90
21823;DHT22;11074;48.596;9.238;2023-09-19T14:42:32;23.00;99.90
21823;DHT22;11074;48.596;9.238;2023-09-19T14:44:58;23.00;99.90
21823;DHT22;11074;48.596;9.238;2023-09-19T14:47:24;23.00;99.90
21823;DHT22;11074;48.596;9.238;2023-09-19T14:49:49;23.00;99.90
21823;DHT22;11074;48.596;9.238;2023-09-19T14:52:15;23.00;99.90
21823;DHT22;11074;48.596;9.238;2023-09-19T14:54:41;23.00;99.90
21823;DHT22;11074;48.596;9.238;2023-09-19T14:57:07;23.10;99.90
21823;DHT22;11074;48.596;9.238;2023-09-19T14:59:34;23.00;99.90
21823;DHT22;11074;48.596;9.238;2023-09-19T15:02:04;23.00;99.90
21823;DHT22;11074;48.596;9.238;2023-09-19T15:04:30;23.00;99.90
21823;DHT22;11074;48.596;9.238;2023-09-19T15:06:56;23.00;99.90
21823;DHT22;11074;48.596;9.238;2023-09-19T15:09:25;23.00;99.90
21823;DHT22;11074;48.596;9.238;2023-09-19T15:11:55;23.00;99.90
21823;DHT22;11074;48.596;9.238;2023-09-19T15:14:21;22.90;99.90
21823;DHT22;11074;48.596;9.238;2023-09-19T15:16:48;23.00;99.90
21823;DHT22;11074;48.596;9.238;2023-09-19T15:19:14;23.00;99.90
21823;DHT22;11074;48.596;9.238;2023-09-19T15:21:41;23.00;99.90
21823;DHT22;11074;48.596;9.238;2023-09-19T15:24:07;22.90;99.90
21823;DHT22;11074;48.596;9.238;2023-09-19T15:26:35;22.90;99.90
21823;DHT22;11074;48.596;9.238;2023-09-19T15:29:07;22.90;99.90
21823;DHT22;11074;48.596;9.238;2023-09-19T15:31:34;22.90;99.90
21823;DHT22;11074;48.596;9.238;2023-09-19T15:34:02;23.00;99.90
21823;DHT22;11074;48.596;9.238;2023-09-19T15:36:29;23.00;99.90
21823;DHT22;11074;48.596;9.238;2023-09-19T15:39:03;22.90;99.90
21823;DHT22;11074;48.596;9.238;2023-09-19T15:41:35;22.90;99.90
21823;DHT22;11074;48.596;9.238;2023-09-19T15:44:03;22.90;99.90
21823;DHT22;11074;48.596;9.238;2023-09-19T15:46:33;22.80;99.90
21823;DHT22;11074;48.596;9.238;2023-09-19T15:49:00;22.80;99.90
21823;DHT22;11074;48.596;9.238;2023-09-19T15:51:27;22.80;99.90
21823;DHT22;11074;48.596;9.238;2023-09-19T15:53:54;22.90;99.90
21823;DHT22;11074;48.596;9.238;2023-09-19T15:56:25;22.80;99.90
21823;DHT22;11074;48.596;9.238;2023-09-19T15:58:53;22.80;99.90
21823;DHT22;11074;48.596;9.238;2023-09-19T16:01:21;22.70;99.90
21823;DHT22;11074;48.596;9.238;2023-09-19T16:03:49;22.70;99.90
21823;DHT22;11074;48.596;9.238;2023-09-19T16:06:24;22.70;99.90
21823;DHT22;11074;48.596;9.238;2023-09-19T16:08:53;22.60;99.90
21823;DHT22;11074;48.596;9.238;2023-09-19T16:11:21;22.60;99.90
21823;DHT22;11074;48.596;9.238;2023-09-19T16:13:49;22.60;99.90
21823;DHT22;11074;48.596;9.238;2023-09-19T16:16:16;22.60;99.90
21823;DHT22;11074;48.596;9.238;2023-09-19T16:18:53;22.50;99.90
21823;DHT22;11074;48.596;9.238;2023-09-19T16:21:23;22.40;99.90
21823;DHT22;11074;48.596;9.238;2023-09-19T16:23:53;22.30;99.90
21823;DHT22;11074;48.596;9.238;2023-09-19T16:26:21;22.30;99.90
21823;DHT22;11074;48.596;9.238;2023-09-19T16:28:50;22.20;99.90
21823;DHT22;11074;48.596;9.238;2023-09-19T16:31:18;22.20;99.90
21823;DHT22;11074;48.596;9.238;2023-09-19T16:33:46;21.90;99.90
21823;DHT22;11074;48.596;9.238;2023-09-19T16:36:17;22.00;99.90